This is the latest recevied weather packets stored in our database for station/object JA6YCL-13. If no packets are shown the sender has not sent any weather packets the latest 1 day(s).
| Time | Temp. | Humidity | Pressure | Rain* | Wind** | Luminosity | Snow |
|---|---|---|---|---|---|---|---|
| 1778022158 | 13.33° C | 76% | 1020.4 hPa | 0 mm | 0.45 m/s, 234° | - | - |
| 1778021303 | 12.78° C | 81% | 1020.6 hPa | 0 mm | 0 m/s | - | - |
| 1778020474 | 12.22° C | 82% | 1020.5 hPa | 0 mm | 0.45 m/s, 296° | - | - |
| 1778019600 | 12.22° C | 81% | 1020.6 hPa | 0 mm | 0.45 m/s, 221° | - | - |
| 1778018875 | 12.22° C | 81% | 1020.7 hPa | 0 mm | 0 m/s | - | - |
| 1778017976 | 11.11° C | 85% | 1020.5 hPa | 0 mm | 0.45 m/s, 225° | - | - |
| 1778017188 | 10.56° C | 87% | 1020.8 hPa | 0 mm | 0.45 m/s, 235° | - | - |
| 1778016293 | 10.56° C | 88% | 1020.7 hPa | 0 mm | 0.89 m/s, 240° | - | - |
| 1778015473 | 10° C | 88% | 1020.5 hPa | 0 mm | 0.45 m/s, 217° | - | - |
| 1778014688 | 10° C | 89% | 1020.2 hPa | 0 mm | 0 m/s | - | - |
| 1778013845 | 10° C | 89% | 1020.5 hPa | 0 mm | 0.45 m/s, 276° | - | - |
| 1778013048 | 10° C | 89% | 1020.3 hPa | 0 mm | 0 m/s | - | - |
| 1778012158 | 10° C | 89% | 1020.5 hPa | 0 mm | 0 m/s | - | - |
| 1778011301 | 10° C | 89% | 1020.5 hPa | 0 mm | 0 m/s | - | - |
| 1778010553 | 10.56° C | 88% | 1020.4 hPa | 0 mm | 0.45 m/s, 267° | - | - |
| 1778009703 | 10.56° C | 88% | 1020.1 hPa | 0 mm | 0.45 m/s, 240° | - | - |
| 1778008818 | 10° C | 88% | 1020.1 hPa | 0 mm | 0.45 m/s, 227° | - | - |
| 1778007998 | 10° C | 88% | 1020 hPa | 0 mm | 0.45 m/s, 240° | - | - |
| 1778007109 | 10° C | 87% | 1020.1 hPa | 0 mm | 0.89 m/s, 244° | - | - |
| 1778006218 | 10.56° C | 87% | 1020 hPa | 0 mm | 0 m/s | - | - |
| 1778005478 | 10.56° C | 86% | 1019.7 hPa | 0 mm | 0.45 m/s, 230° | - | - |
| 1778004746 | 10.56° C | 86% | 1019.7 hPa | 0 mm | 0.45 m/s, 241° | - | - |
| 1778004023 | 11.11° C | 85% | 1019.8 hPa | 0 mm | 0 m/s | - | - |
| 1778003253 | 10.56° C | 85% | 1020.1 hPa | 0 mm | 0.45 m/s, 239° | - | - |
| 1778002458 | 11.11° C | 85% | 1020.4 hPa | 0 mm | 0 m/s | - | - |
* Rain latest hour (hover to see other rain measurements)
** Current wind speed in m/s (hover to see current wind gust speed)